EWG839 LIPE-EDDK
Flight info
| Callsign | EWG839 |
|---|---|
| Flight time | 1h 14m |
| Altitude | 36000 |
| Route | LUMAV L12 VIC DCT SOTOV DCT KPT L608 KOVAN T844 ASKIK T840 GULKO GULKO1E |
| Aircraft | A319/M-SDE3FGHIRWY/LB1 |
Departure
| Time | 2026-04-24 12:22 |
|---|---|
| Airport | Bologna Guglielmo Marconi Airport (LIPE) |
Arrival
| Time | 2026-04-24 13:36 |
|---|---|
| Airport | Cologne Bonn Airport (EDDK) |
| Time | Latitude | Longitude | Altitude | Speed | Heading |
|---|---|---|---|---|---|
| 2026-04-24 12:02 | 44.52964 | 11.29625 | 131 ft | 0 kts | 207° |
| 2026-04-24 12:14 | 44.52980 | 11.29636 | 126 ft | 4 kts | 200° |
| 2026-04-24 12:14 | 44.53006 | 11.29644 | 125 ft | 4 kts | 165° |
| 2026-04-24 12:15 | 44.53020 | 11.29633 | 130 ft | 0 kts | 117° |
| 2026-04-24 12:17 | 44.53019 | 11.29636 | 130 ft | 2 kts | 117° |
| 2026-04-24 12:18 | 44.53005 | 11.29676 | 130 ft | 7 kts | 117° |
| 2026-04-24 12:18 | 44.52987 | 11.29726 | 128 ft | 10 kts | 117° |
| 2026-04-24 12:18 | 44.52998 | 11.29796 | 130 ft | 8 kts | 52° |
| 2026-04-24 12:18 | 44.52981 | 11.29882 | 127 ft | 12 kts | 118° |
| 2026-04-24 12:19 | 44.52941 | 11.29991 | 126 ft | 13 kts | 117° |
| 2026-04-24 12:19 | 44.52898 | 11.30110 | 127 ft | 14 kts | 117° |
| 2026-04-24 12:19 | 44.52873 | 11.30198 | 130 ft | 2 kts | 87° |
| 2026-04-24 12:19 | 44.52873 | 11.30199 | 130 ft | 0 kts | 86° |
| 2026-04-24 12:20 | 44.52873 | 11.30200 | 130 ft | 1 kts | 86° |
| 2026-04-24 12:20 | 44.52874 | 11.30242 | 128 ft | 7 kts | 86° |
| 2026-04-24 12:20 | 44.52908 | 11.30313 | 130 ft | 11 kts | 26° |
| 2026-04-24 12:21 | 44.52985 | 11.30354 | 128 ft | 12 kts | 10° |
| 2026-04-24 12:21 | 44.53025 | 11.30310 | 128 ft | 8 kts | 296° |
| 2026-04-24 12:21 | 44.53078 | 11.30166 | 123 ft | 43 kts | 297° |
| 2026-04-24 12:21 | 44.53334 | 11.29452 | 131 ft | 117 kts | 297° |
| 2026-04-24 12:22 | 44.53787 | 11.28200 | 183 ft | 167 kts | 297° |
| 2026-04-24 12:22 | 44.54309 | 11.26752 | 955 ft | 160 kts | 297° |
| 2026-04-24 12:22 | 44.54808 | 11.25387 | 1739 ft | 155 kts | 298° |
| 2026-04-24 12:22 | 44.55341 | 11.23989 | 2260 ft | 173 kts | 298° |
| 2026-04-24 12:23 | 44.55916 | 11.22427 | 2795 ft | 186 kts | 297° |
| 2026-04-24 12:23 | 44.56515 | 11.20758 | 3421 ft | 198 kts | 296° |
| 2026-04-24 12:23 | 44.57155 | 11.18925 | 3911 ft | 221 kts | 295° |
| 2026-04-24 12:23 | 44.57865 | 11.16883 | 4433 ft | 245 kts | 295° |
| 2026-04-24 12:24 | 44.58685 | 11.14678 | 5025 ft | 264 kts | 298° |
| 2026-04-24 12:24 | 44.59585 | 11.12389 | 5951 ft | 270 kts | 299° |
| 2026-04-24 12:24 | 44.60635 | 11.10188 | 6970 ft | 273 kts | 309° |
| 2026-04-24 12:24 | 44.62076 | 11.08437 | 7926 ft | 278 kts | 329° |
| 2026-04-24 12:25 | 44.63905 | 11.07534 | 8865 ft | 283 kts | 352° |
| 2026-04-24 12:25 | 44.65878 | 11.07695 | 9804 ft | 288 kts | 14° |
| 2026-04-24 12:25 | 44.67692 | 11.08904 | 10733 ft | 293 kts | 36° |
| 2026-04-24 12:25 | 44.69092 | 11.10986 | 11663 ft | 296 kts | 57° |
| 2026-04-24 12:26 | 44.69952 | 11.13673 | 12279 ft | 313 kts | 69° |
| 2026-04-24 12:26 | 44.70698 | 11.16643 | 12738 ft | 329 kts | 70° |
| 2026-04-24 12:26 | 44.71435 | 11.19711 | 13491 ft | 334 kts | 70° |
| 2026-04-24 12:26 | 44.72173 | 11.22823 | 14271 ft | 337 kts | 70° |
| 2026-04-24 12:27 | 44.72917 | 11.25970 | 15029 ft | 340 kts | 70° |
| 2026-04-24 12:27 | 44.73668 | 11.29130 | 15807 ft | 342 kts | 70° |
| 2026-04-24 12:27 | 44.74442 | 11.32348 | 16566 ft | 344 kts | 69° |
| 2026-04-24 12:27 | 44.75569 | 11.35313 | 17266 ft | 346 kts | 52° |
| 2026-04-24 12:28 | 44.77346 | 11.37591 | 17964 ft | 350 kts | 32° |
| 2026-04-24 12:28 | 44.79520 | 11.39176 | 18661 ft | 353 kts | 27° |
| 2026-04-24 12:28 | 44.81733 | 11.40698 | 19322 ft | 356 kts | 27° |
| 2026-04-24 12:28 | 44.83971 | 11.42230 | 19952 ft | 359 kts | 27° |
| 2026-04-24 12:29 | 44.86228 | 11.43780 | 20572 ft | 363 kts | 27° |
| 2026-04-24 12:29 | 44.88508 | 11.45355 | 21174 ft | 366 kts | 27° |
| 2026-04-24 12:29 | 44.90802 | 11.46950 | 21767 ft | 370 kts | 27° |
| 2026-04-24 12:29 | 44.93118 | 11.48564 | 22335 ft | 373 kts | 27° |
| 2026-04-24 12:30 | 44.95455 | 11.50194 | 22890 ft | 376 kts | 28° |
| 2026-04-24 12:30 | 44.97809 | 11.51836 | 23455 ft | 379 kts | 28° |
| 2026-04-24 12:30 | 45.00184 | 11.53496 | 23978 ft | 383 kts | 27° |
| 2026-04-24 12:30 | 45.02583 | 11.55172 | 24473 ft | 386 kts | 27° |
| 2026-04-24 12:31 | 45.04999 | 11.56862 | 24981 ft | 389 kts | 27° |
| 2026-04-24 12:31 | 45.07436 | 11.58565 | 25475 ft | 391 kts | 27° |
| 2026-04-24 12:31 | 45.09884 | 11.60275 | 25947 ft | 394 kts | 27° |
| 2026-04-24 12:31 | 45.12350 | 11.61997 | 26410 ft | 396 kts | 27° |
| 2026-04-24 12:32 | 45.14922 | 11.63453 | 26858 ft | 400 kts | 18° |
| 2026-04-24 12:32 | 45.17659 | 11.64268 | 27297 ft | 405 kts | 8° |
| 2026-04-24 12:32 | 45.20486 | 11.64529 | 27724 ft | 408 kts | 5° |
| 2026-04-24 12:32 | 45.23332 | 11.64731 | 28153 ft | 410 kts | 5° |
| 2026-04-24 12:33 | 45.26192 | 11.64928 | 28566 ft | 412 kts | 5° |
| 2026-04-24 12:33 | 45.29065 | 11.65125 | 28957 ft | 415 kts | 5° |
| 2026-04-24 12:33 | 45.31950 | 11.65325 | 29358 ft | 416 kts | 5° |
| 2026-04-24 12:33 | 45.34850 | 11.65533 | 29743 ft | 418 kts | 5° |
| 2026-04-24 12:34 | 45.37759 | 11.65744 | 30127 ft | 420 kts | 5° |
| 2026-04-24 12:34 | 45.40681 | 11.65958 | 30502 ft | 421 kts | 5° |
| 2026-04-24 12:34 | 45.43614 | 11.66174 | 30865 ft | 423 kts | 5° |
| 2026-04-24 12:34 | 45.46566 | 11.66390 | 31220 ft | 425 kts | 5° |
| 2026-04-24 12:35 | 45.49528 | 11.66605 | 31554 ft | 427 kts | 5° |
| 2026-04-24 12:35 | 45.52497 | 11.66822 | 31921 ft | 427 kts | 5° |
| 2026-04-24 12:35 | 45.55460 | 11.67037 | 32392 ft | 425 kts | 5° |
| 2026-04-24 12:35 | 45.58446 | 11.67251 | 32865 ft | 423 kts | 5° |
| 2026-04-24 12:36 | 45.61383 | 11.67460 | 33305 ft | 422 kts | 4° |
| 2026-04-24 12:36 | 45.64319 | 11.67274 | 33742 ft | 424 kts | 355° |
| 2026-04-24 12:36 | 45.67212 | 11.66434 | 34189 ft | 424 kts | 349° |
| 2026-04-24 12:36 | 45.70072 | 11.65431 | 34621 ft | 423 kts | 349° |
| 2026-04-24 12:37 | 45.72925 | 11.64433 | 35012 ft | 422 kts | 349° |
| 2026-04-24 12:37 | 45.75772 | 11.63436 | 35391 ft | 420 kts | 349° |
| 2026-04-24 12:37 | 45.78615 | 11.62441 | 35750 ft | 420 kts | 349° |
| 2026-04-24 12:37 | 45.81447 | 11.61450 | 36063 ft | 420 kts | 349° |
| 2026-04-24 12:38 | 45.84305 | 11.60454 | 36147 ft | 425 kts | 349° |
| 2026-04-24 12:38 | 45.90094 | 11.58433 | 36154 ft | 429 kts | 349° |
| 2026-04-24 12:39 | 46.01685 | 11.54347 | 36138 ft | 430 kts | 349° |
| 2026-04-24 12:40 | 46.07492 | 11.52297 | 36147 ft | 430 kts | 349° |
| 2026-04-24 12:40 | 46.13310 | 11.50233 | 36150 ft | 431 kts | 349° |
| 2026-04-24 12:41 | 46.19136 | 11.48168 | 36158 ft | 431 kts | 349° |
| 2026-04-24 12:41 | 46.24954 | 11.46105 | 36162 ft | 430 kts | 349° |
| 2026-04-24 12:42 | 46.30770 | 11.44033 | 36159 ft | 430 kts | 349° |
| 2026-04-24 12:42 | 46.36586 | 11.41953 | 36144 ft | 431 kts | 349° |
| 2026-04-24 12:43 | 46.42443 | 11.39854 | 36123 ft | 431 kts | 349° |
| 2026-04-24 12:43 | 46.48269 | 11.37771 | 36090 ft | 431 kts | 349° |
| 2026-04-24 12:44 | 46.54086 | 11.35677 | 36077 ft | 431 kts | 348° |
| 2026-04-24 12:44 | 46.59911 | 11.33579 | 36074 ft | 431 kts | 348° |
| 2026-04-24 12:45 | 46.65762 | 11.31472 | 36072 ft | 431 kts | 348° |
| 2026-04-24 12:45 | 46.71554 | 11.29370 | 36079 ft | 431 kts | 348° |
| 2026-04-24 12:46 | 46.77196 | 11.27314 | 36086 ft | 431 kts | 348° |
| 2026-04-24 12:46 | 46.83009 | 11.25199 | 36092 ft | 431 kts | 348° |
| 2026-04-24 12:47 | 46.88268 | 11.23286 | 36099 ft | 431 kts | 348° |
| 2026-04-24 12:47 | 46.94025 | 11.20805 | 36103 ft | 434 kts | 338° |
| 2026-04-24 12:48 | 46.99152 | 11.16049 | 36110 ft | 438 kts | 327° |
| 2026-04-24 12:48 | 47.04089 | 11.10827 | 36112 ft | 438 kts | 327° |
| 2026-04-24 12:49 | 47.09072 | 11.05550 | 36110 ft | 438 kts | 327° |
| 2026-04-24 12:49 | 47.13177 | 11.01190 | 36105 ft | 438 kts | 326° |
| 2026-04-24 12:50 | 47.18110 | 10.95940 | 36108 ft | 438 kts | 327° |
| 2026-04-24 12:50 | 47.22618 | 10.91136 | 36110 ft | 438 kts | 327° |
| 2026-04-24 12:51 | 47.27557 | 10.85862 | 36110 ft | 439 kts | 326° |
| 2026-04-24 12:51 | 47.32494 | 10.80577 | 36115 ft | 439 kts | 326° |
| 2026-04-24 12:52 | 47.37468 | 10.75245 | 36127 ft | 439 kts | 326° |
| 2026-04-24 12:52 | 47.42405 | 10.69928 | 36131 ft | 439 kts | 326° |
| 2026-04-24 12:53 | 47.47334 | 10.64604 | 36145 ft | 439 kts | 326° |
| 2026-04-24 12:53 | 47.52285 | 10.59253 | 36153 ft | 440 kts | 326° |
| 2026-04-24 12:54 | 47.57215 | 10.53919 | 36155 ft | 440 kts | 326° |
| 2026-04-24 12:54 | 47.62190 | 10.48516 | 36162 ft | 440 kts | 325° |
| 2026-04-24 12:55 | 47.67125 | 10.43143 | 36170 ft | 440 kts | 325° |
| 2026-04-24 12:55 | 47.72131 | 10.37678 | 36174 ft | 441 kts | 325° |
| 2026-04-24 12:56 | 47.76524 | 10.32776 | 36180 ft | 441 kts | 323° |
| 2026-04-24 12:56 | 47.81289 | 10.27003 | 36184 ft | 442 kts | 321° |
| 2026-04-24 12:57 | 47.86038 | 10.21071 | 36190 ft | 442 kts | 321° |
| 2026-04-24 12:57 | 47.90775 | 10.15215 | 36187 ft | 442 kts | 322° |
| 2026-04-24 12:58 | 47.95562 | 10.09352 | 36187 ft | 443 kts | 322° |
| 2026-04-24 12:58 | 48.00331 | 10.03518 | 36195 ft | 443 kts | 322° |
| 2026-04-24 12:59 | 48.05123 | 9.97617 | 36193 ft | 443 kts | 321° |
| 2026-04-24 12:59 | 48.09881 | 9.91741 | 36185 ft | 443 kts | 321° |
| 2026-04-24 13:00 | 48.14665 | 9.85819 | 36184 ft | 443 kts | 321° |
| 2026-04-24 13:00 | 48.19407 | 9.79931 | 36179 ft | 443 kts | 321° |
| 2026-04-24 13:01 | 48.24188 | 9.73979 | 36177 ft | 444 kts | 321° |
| 2026-04-24 13:01 | 48.28936 | 9.68058 | 36175 ft | 444 kts | 321° |
| 2026-04-24 13:02 | 48.33682 | 9.62115 | 36184 ft | 444 kts | 321° |
| 2026-04-24 13:02 | 48.38404 | 9.56144 | 36182 ft | 444 kts | 320° |
| 2026-04-24 13:03 | 48.43108 | 9.50110 | 36186 ft | 444 kts | 320° |
| 2026-04-24 13:03 | 48.47800 | 9.44061 | 36188 ft | 444 kts | 320° |
| 2026-04-24 13:04 | 48.50655 | 9.40412 | 36192 ft | 443 kts | 320° |
| 2026-04-24 13:04 | 48.55480 | 9.34230 | 36195 ft | 443 kts | 320° |
| 2026-04-24 13:05 | 48.60114 | 9.28202 | 36190 ft | 443 kts | 321° |
| 2026-04-24 13:05 | 48.65350 | 9.23594 | 36195 ft | 443 kts | 336° |
| 2026-04-24 13:06 | 48.70676 | 9.20125 | 36195 ft | 443 kts | 336° |
| 2026-04-24 13:06 | 48.75373 | 9.17022 | 36196 ft | 443 kts | 336° |
| 2026-04-24 13:07 | 48.82004 | 9.12599 | 36190 ft | 443 kts | 336° |
| 2026-04-24 13:07 | 48.87613 | 9.08843 | 36190 ft | 443 kts | 336° |
| 2026-04-24 13:08 | 48.93448 | 9.05803 | 36187 ft | 443 kts | 341° |
| 2026-04-24 13:08 | 48.99343 | 9.02847 | 36188 ft | 443 kts | 341° |
| 2026-04-24 13:09 | 49.08113 | 8.98436 | 36183 ft | 443 kts | 341° |
| 2026-04-24 13:09 | 49.13969 | 8.95473 | 36180 ft | 443 kts | 341° |
| 2026-04-24 13:10 | 49.19813 | 8.92498 | 36181 ft | 443 kts | 340° |
| 2026-04-24 13:10 | 49.25672 | 8.89518 | 36186 ft | 444 kts | 340° |
| 2026-04-24 13:11 | 49.30582 | 8.87022 | 36195 ft | 444 kts | 340° |
| 2026-04-24 13:11 | 49.37410 | 8.83531 | 36201 ft | 444 kts | 340° |
| 2026-04-24 13:12 | 49.42317 | 8.81084 | 36204 ft | 444 kts | 342° |
| 2026-04-24 13:12 | 49.48309 | 8.78462 | 36207 ft | 445 kts | 343° |
| 2026-04-24 13:13 | 49.54266 | 8.75968 | 35392 ft | 444 kts | 343° |
| 2026-04-24 13:13 | 49.57235 | 8.74704 | 34879 ft | 440 kts | 343° |
| 2026-04-24 13:13 | 49.60167 | 8.73435 | 34332 ft | 437 kts | 343° |
| 2026-04-24 13:14 | 49.63076 | 8.72154 | 33808 ft | 433 kts | 343° |
| 2026-04-24 13:14 | 49.65952 | 8.70879 | 33291 ft | 429 kts | 343° |
| 2026-04-24 13:14 | 49.68406 | 8.69792 | 32848 ft | 425 kts | 343° |
| 2026-04-24 13:14 | 49.71235 | 8.68541 | 32334 ft | 422 kts | 343° |
| 2026-04-24 13:15 | 49.74045 | 8.67292 | 31827 ft | 418 kts | 343° |
| 2026-04-24 13:15 | 49.76862 | 8.66036 | 31324 ft | 414 kts | 343° |
| 2026-04-24 13:15 | 49.79621 | 8.64804 | 30837 ft | 410 kts | 343° |
| 2026-04-24 13:15 | 49.82205 | 8.63652 | 30393 ft | 406 kts | 343° |
| 2026-04-24 13:16 | 49.84644 | 8.62571 | 29962 ft | 403 kts | 343° |
| 2026-04-24 13:16 | 49.87302 | 8.61392 | 29514 ft | 398 kts | 343° |
| 2026-04-24 13:16 | 49.89968 | 8.60209 | 29059 ft | 394 kts | 343° |
| 2026-04-24 13:16 | 49.92580 | 8.59049 | 28629 ft | 391 kts | 343° |
| 2026-04-24 13:17 | 49.95205 | 8.57880 | 28193 ft | 387 kts | 343° |
| 2026-04-24 13:17 | 49.97816 | 8.56715 | 27759 ft | 384 kts | 343° |
| 2026-04-24 13:17 | 50.00334 | 8.55588 | 27338 ft | 382 kts | 343° |
| 2026-04-24 13:17 | 50.02875 | 8.54448 | 26910 ft | 379 kts | 342° |
| 2026-04-24 13:18 | 50.05398 | 8.53309 | 26471 ft | 377 kts | 342° |
| 2026-04-24 13:18 | 50.07874 | 8.52098 | 26038 ft | 374 kts | 340° |
| 2026-04-24 13:18 | 50.10380 | 8.50768 | 25576 ft | 372 kts | 339° |
| 2026-04-24 13:18 | 50.12782 | 8.49441 | 25151 ft | 369 kts | 339° |
| 2026-04-24 13:19 | 50.15193 | 8.48094 | 24680 ft | 367 kts | 339° |
| 2026-04-24 13:19 | 50.17587 | 8.46763 | 24215 ft | 365 kts | 339° |
| 2026-04-24 13:19 | 50.19977 | 8.45446 | 23747 ft | 362 kts | 339° |
| 2026-04-24 13:19 | 50.22346 | 8.44155 | 23284 ft | 360 kts | 339° |
| 2026-04-24 13:20 | 50.24703 | 8.42874 | 22825 ft | 358 kts | 339° |
| 2026-04-24 13:20 | 50.27045 | 8.41603 | 22370 ft | 356 kts | 340° |
| 2026-04-24 13:20 | 50.29333 | 8.40172 | 21921 ft | 352 kts | 332° |
| 2026-04-24 13:20 | 50.31419 | 8.38191 | 21478 ft | 349 kts | 327° |
| 2026-04-24 13:21 | 50.33484 | 8.36130 | 21039 ft | 347 kts | 327° |
| 2026-04-24 13:21 | 50.35514 | 8.34108 | 20612 ft | 344 kts | 327° |
| 2026-04-24 13:21 | 50.37532 | 8.32097 | 20134 ft | 343 kts | 327° |
| 2026-04-24 13:21 | 50.39541 | 8.30087 | 19634 ft | 343 kts | 327° |
| 2026-04-24 13:22 | 50.41553 | 8.28075 | 19131 ft | 343 kts | 327° |
| 2026-04-24 13:22 | 50.43562 | 8.26069 | 18630 ft | 343 kts | 327° |
| 2026-04-24 13:22 | 50.45572 | 8.24061 | 18125 ft | 342 kts | 327° |
| 2026-04-24 13:22 | 50.47579 | 8.22052 | 17625 ft | 342 kts | 327° |
| 2026-04-24 13:23 | 50.49580 | 8.20040 | 17124 ft | 341 kts | 327° |
| 2026-04-24 13:23 | 50.51580 | 8.18035 | 16624 ft | 341 kts | 327° |
| 2026-04-24 13:23 | 50.53578 | 8.16027 | 16120 ft | 340 kts | 327° |
| 2026-04-24 13:23 | 50.55566 | 8.14022 | 15607 ft | 337 kts | 327° |
| 2026-04-24 13:24 | 50.57502 | 8.12064 | 15104 ft | 326 kts | 327° |
| 2026-04-24 13:24 | 50.59385 | 8.10162 | 14603 ft | 317 kts | 327° |
| 2026-04-24 13:24 | 50.61219 | 8.08312 | 14102 ft | 309 kts | 327° |
| 2026-04-24 13:24 | 50.63007 | 8.06510 | 13602 ft | 302 kts | 328° |
| 2026-04-24 13:25 | 50.64795 | 8.04704 | 13102 ft | 302 kts | 328° |
| 2026-04-24 13:25 | 50.66560 | 8.02914 | 12597 ft | 301 kts | 327° |
| 2026-04-24 13:25 | 50.68321 | 8.01122 | 12095 ft | 301 kts | 327° |
| 2026-04-24 13:25 | 50.70075 | 7.99329 | 11596 ft | 300 kts | 327° |
| 2026-04-24 13:26 | 50.71826 | 7.97541 | 11090 ft | 299 kts | 328° |
| 2026-04-24 13:26 | 50.73433 | 7.95483 | 10583 ft | 298 kts | 312° |
| 2026-04-24 13:26 | 50.74508 | 7.92726 | 10141 ft | 291 kts | 293° |
| 2026-04-24 13:26 | 50.74932 | 7.89654 | 9741 ft | 285 kts | 275° |
| 2026-04-24 13:27 | 50.74768 | 7.86589 | 9338 ft | 279 kts | 264° |
| 2026-04-24 13:27 | 50.74490 | 7.83498 | 8990 ft | 274 kts | 265° |
| 2026-04-24 13:27 | 50.74232 | 7.80595 | 8667 ft | 270 kts | 265° |
| 2026-04-24 13:27 | 50.73971 | 7.77674 | 8342 ft | 267 kts | 265° |
| 2026-04-24 13:28 | 50.73714 | 7.74782 | 8011 ft | 266 kts | 265° |
| 2026-04-24 13:28 | 50.73462 | 7.71936 | 7684 ft | 263 kts | 265° |
| 2026-04-24 13:28 | 50.73203 | 7.69053 | 7361 ft | 261 kts | 265° |
| 2026-04-24 13:28 | 50.72951 | 7.66260 | 7035 ft | 258 kts | 265° |
| 2026-04-24 13:29 | 50.72697 | 7.63477 | 6710 ft | 254 kts | 265° |
| 2026-04-24 13:29 | 50.72444 | 7.60706 | 6382 ft | 253 kts | 265° |
| 2026-04-24 13:29 | 50.72196 | 7.57989 | 6063 ft | 249 kts | 265° |
| 2026-04-24 13:29 | 50.71951 | 7.55294 | 5735 ft | 247 kts | 265° |
| 2026-04-24 13:30 | 50.71705 | 7.52614 | 5401 ft | 247 kts | 265° |
| 2026-04-24 13:30 | 50.71458 | 7.49943 | 5076 ft | 244 kts | 265° |
| 2026-04-24 13:30 | 50.71215 | 7.47314 | 4767 ft | 241 kts | 265° |
| 2026-04-24 13:30 | 50.70975 | 7.44694 | 4440 ft | 241 kts | 265° |
| 2026-04-24 13:31 | 50.70735 | 7.42080 | 4137 ft | 240 kts | 264° |
| 2026-04-24 13:31 | 50.70621 | 7.39474 | 3952 ft | 235 kts | 281° |
| 2026-04-24 13:31 | 50.71276 | 7.37136 | 3765 ft | 225 kts | 312° |
| 2026-04-24 13:31 | 50.72347 | 7.35532 | 3655 ft | 214 kts | 319° |
| 2026-04-24 13:32 | 50.73431 | 7.33988 | 3460 ft | 207 kts | 319° |
| 2026-04-24 13:32 | 50.74498 | 7.32458 | 3196 ft | 200 kts | 319° |
| 2026-04-24 13:32 | 50.75508 | 7.31005 | 2942 ft | 193 kts | 319° |
| 2026-04-24 13:32 | 50.76496 | 7.29584 | 2725 ft | 191 kts | 319° |
| 2026-04-24 13:33 | 50.77480 | 7.28169 | 2449 ft | 190 kts | 318° |
| 2026-04-24 13:33 | 50.78436 | 7.26791 | 2189 ft | 183 kts | 318° |
| 2026-04-24 13:33 | 50.79356 | 7.25468 | 1949 ft | 175 kts | 317° |
| 2026-04-24 13:33 | 50.80232 | 7.24204 | 1719 ft | 166 kts | 318° |
| 2026-04-24 13:34 | 50.81059 | 7.23012 | 1529 ft | 157 kts | 317° |
| 2026-04-24 13:34 | 50.81848 | 7.21871 | 1287 ft | 151 kts | 317° |
| 2026-04-24 13:34 | 50.82625 | 7.20751 | 1073 ft | 150 kts | 317° |
| 2026-04-24 13:34 | 50.83389 | 7.19644 | 898 ft | 148 kts | 316° |
| 2026-04-24 13:35 | 50.84151 | 7.18552 | 701 ft | 147 kts | 317° |
| 2026-04-24 13:35 | 50.84890 | 7.17477 | 550 ft | 144 kts | 317° |
| 2026-04-24 13:35 | 50.85634 | 7.16407 | 344 ft | 145 kts | 318° |
| 2026-04-24 13:35 | 50.86323 | 7.15410 | 288 ft | 124 kts | 317° |
| 2026-04-24 13:36 | 50.86834 | 7.14669 | 264 ft | 76 kts | 318° |
| 2026-04-24 13:36 | 50.87210 | 7.14123 | 246 ft | 68 kts | 317° |
| 2026-04-24 13:36 | 50.87543 | 7.13642 | 240 ft | 62 kts | 317° |
| 2026-04-24 13:36 | 50.87806 | 7.13260 | 239 ft | 35 kts | 317° |
| 2026-04-24 13:37 | 50.87838 | 7.13070 | 239 ft | 19 kts | 255° |
| 2026-04-24 13:37 | 50.87807 | 7.12879 | 234 ft | 11 kts | 256° |
| 2026-04-24 13:37 | 50.87787 | 7.12738 | 234 ft | 14 kts | 257° |
| 2026-04-24 13:37 | 50.87765 | 7.12607 | 232 ft | 11 kts | 255° |
| 2026-04-24 13:38 | 50.87714 | 7.12523 | 232 ft | 12 kts | 199° |
| 2026-04-24 13:38 | 50.87678 | 7.12481 | 232 ft | 6 kts | 263° |
| 2026-04-24 13:38 | 50.87685 | 7.12438 | 232 ft | 6 kts | 289° |
| 2026-04-24 13:38 | 50.87695 | 7.12390 | 234 ft | 3 kts | 288° |
| 2026-04-24 13:39 | 50.87696 | 7.12385 | 232 ft | 0 kts | 288° |